Time;durP1;ratioP1;P1;durP2;ratioP2;P2;SDS_P1;SDS_P2;PMS_P1;PMS_P2;Temp;Humidity;BMP_temperature;BMP_pressure;BME280_temperature;BME280_humidity;BME280_pressure;Samples;Min_cycle;Max_cycle;Signal;HPM_P1;HPM_P2
2023/08/28 00:00:06;;;;;;;0.00;0.00;;;16.10;99.90;;;;;;5082411;28;20156;-80
2023/08/28 00:02:32;;;;;;;0.00;0.00;;;16.30;99.90;;;;;;5121631;27;20494;-80
2023/08/28 00:04:58;;;;;;;4.65;0.95;;;16.20;99.90;;;;;;5103831;28;20020;-80
2023/08/28 00:07:25;;;;;;;0.00;0.00;;;16.40;99.90;;;;;;5124651;27;20019;-81
2023/08/28 00:09:51;;;;;;;0.00;0.00;;;16.50;99.90;;;;;;5126570;27;20503;-81
2023/08/28 00:12:17;;;;;;;0.00;0.00;;;16.50;99.90;;;;;;5127700;27;20038;-80
2023/08/28 00:14:43;;;;;;;0.00;0.00;;;16.60;99.90;;;;;;5112687;27;20038;-81
2023/08/28 00:17:08;;;;;;;0.40;0.40;;;16.70;99.90;;;;;;5112111;28;20372;-81
2023/08/28 00:19:34;;;;;;;0.05;0.05;;;16.40;99.90;;;;;;5133635;27;20035;-80
2023/08/28 00:22:00;;;;;;;0.00;0.00;;;16.50;99.90;;;;;;5077859;28;20119;-81
2023/08/28 00:24:26;;;;;;;0.00;0.00;;;16.20;99.90;;;;;;5089049;28;20053;-80
2023/08/28 00:26:51;;;;;;;0.00;0.00;;;16.50;99.90;;;;;;5101878;28;20071;-81
2023/08/28 00:29:17;;;;;;;0.15;0.08;;;16.50;99.90;;;;;;5118078;28;20030;-80
2023/08/28 00:31:43;;;;;;;0.10;0.10;;;16.10;99.90;;;;;;5089445;28;20425;-81
2023/08/28 00:34:09;;;;;;;0.80;0.52;;;16.00;99.90;;;;;;5101641;28;20051;-80
2023/08/28 00:36:35;;;;;;;0.00;0.00;;;15.90;99.90;;;;;;5109427;28;20023;-80
2023/08/28 00:39:02;;;;;;;0.00;0.00;;;16.20;99.90;;;;;;5106421;28;20027;-80
2023/08/28 00:41:29;;;;;;;0.00;0.00;;;16.60;99.90;;;;;;5109229;28;20064;-80
2023/08/28 00:43:55;;;;;;;0.30;0.25;;;16.30;99.90;;;;;;5090464;28;20023;-81
2023/08/28 00:46:20;;;;;;;0.40;0.40;;;16.00;99.90;;;;;;5109451;28;20019;-80
2023/08/28 00:48:46;;;;;;;1.30;0.45;;;15.70;99.90;;;;;;5111900;28;20023;-80
2023/08/28 00:51:13;;;;;;;0.10;0.10;;;15.70;99.90;;;;;;5110116;28;20027;-81
2023/08/28 00:53:38;;;;;;;0.03;0.03;;;15.80;99.90;;;;;;5090148;28;20036;-81
2023/08/28 00:56:05;;;;;;;0.15;0.15;;;16.10;99.90;;;;;;5074072;28;20028;-80
2023/08/28 00:58:31;;;;;;;0.10;0.10;;;16.30;99.90;;;;;;5063544;28;20028;-80
2023/08/28 01:00:56;;;;;;;0.47;0.47;;;16.20;99.90;;;;;;5079057;28;20020;-80
2023/08/28 01:03:22;;;;;;;0.00;0.00;;;15.90;99.90;;;;;;5064031;28;20119;-81
2023/08/28 01:06:28;;;;;;;0.57;0.57;;;16.10;99.90;;;;;;5083147;28;20080;-80
2023/08/28 01:09:13;;;;;;;0.32;0.32;;;16.10;99.90;;;;;;5090863;28;20027;-80
2023/08/28 01:11:54;;;;;;;0.03;0.03;;;15.80;99.90;;;;;;5101009;27;20103;-81
2023/08/28 01:14:28;;;;;;;1.00;0.57;;;16.10;99.90;;;;;;5099609;28;20076;-80
2023/08/28 01:17:03;;;;;;;0.45;0.30;;;16.30;99.90;;;;;;5103873;27;20019;-80
2023/08/28 01:19:33;;;;;;;0.00;0.00;;;16.30;99.90;;;;;;5120210;27;20031;-80
2023/08/28 01:22:38;;;;;;;0.73;0.38;;;16.20;99.90;;;;;;5100045;27;20019;-83
2023/08/28 01:25:10;;;;;;;0.20;0.20;;;16.40;99.90;;;;;;5123030;27;20402;-81
2023/08/28 01:27:37;;;;;;;0.30;0.30;;;16.20;99.90;;;;;;5099647;28;20030;-80
2023/08/28 01:30:14;;;;;;;0.00;0.00;;;16.00;99.90;;;;;;5098831;28;20084;-81
2023/08/28 01:32:42;;;;;;;0.00;0.00;;;16.20;99.90;;;;;;5077491;28;20031;-80
2023/08/28 01:35:31;;;;;;;0.05;0.05;;;16.30;99.90;;;;;;5063737;27;20059;-81
2023/08/28 01:37:57;;;;;;;0.00;0.00;;;16.20;99.90;;;;;;5101461;27;20458;-81
2023/08/28 01:40:43;;;;;;;0.75;0.65;;;16.40;99.90;;;;;;5096119;27;20031;-80
2023/08/28 01:43:11;;;;;;;0.10;0.10;;;16.70;99.90;;;;;;5075944;27;20429;-81
2023/08/28 01:45:39;;;;;;;0.30;0.30;;;16.50;99.90;;;;;;5116977;27;20027;-80
2023/08/28 01:48:06;;;;;;;0.00;0.00;;;16.30;99.90;;;;;;5114964;27;20110;-80
2023/08/28 01:50:32;;;;;;;0.00;0.00;;;16.40;99.90;;;;;;5097526;28;20024;-79
2023/08/28 01:52:57;;;;;;;0.00;0.00;;;16.30;99.90;;;;;;5080503;28;20023;-80
2023/08/28 01:55:46;;;;;;;0.10;0.10;;;16.20;99.90;;;;;;5060377;28;20036;-81
2023/08/28 01:58:13;;;;;;;0.00;0.00;;;16.20;99.90;;;;;;5076852;28;20036;-79
2023/08/28 02:00:39;;;;;;;5.82;5.28;;;16.40;99.90;;;;;;5089048;28;20156;-80
2023/08/28 02:03:06;;;;;;;0.00;0.00;;;16.00;99.90;;;;;;5082870;28;20024;-79
2023/08/28 02:05:32;;;;;;;0.00;0.00;;;16.20;99.90;;;;;;5097196;28;20106;-80
2023/08/28 02:07:59;;;;;;;0.00;0.00;;;16.30;99.90;;;;;;5097414;28;20410;-80
2023/08/28 02:10:28;;;;;;;0.30;0.30;;;16.20;99.90;;;;;;5096320;28;20027;-80
2023/08/28 02:12:56;;;;;;;0.10;0.10;;;16.00;99.90;;;;;;5080586;28;20023;-80
2023/08/28 02:15:22;;;;;;;0.10;0.10;;;16.10;99.90;;;;;;5115352;28;20460;-80
2023/08/28 02:17:49;;;;;;;0.20;0.20;;;16.10;99.90;;;;;;5096867;28;20035;-79
2023/08/28 02:20:15;;;;;;;0.20;0.10;;;16.00;99.90;;;;;;5097059;28;20433;-80
2023/08/28 02:22:40;;;;;;;35.40;1.38;;;15.90;99.90;;;;;;5096704;28;20065;-80
2023/08/28 02:25:07;;;;;;;0.00;0.00;;;15.90;99.90;;;;;;5096835;28;20032;-79
2023/08/28 02:27:33;;;;;;;0.43;0.40;;;16.20;99.90;;;;;;5096871;28;20430;-79
2023/08/28 02:29:59;;;;;;;0.30;0.30;;;16.00;99.90;;;;;;5115027;28;20055;-79
2023/08/28 02:32:25;;;;;;;0.00;0.00;;;16.00;99.90;;;;;;5096450;28;20066;-79
2023/08/28 02:34:52;;;;;;;0.75;0.75;;;16.10;99.90;;;;;;5097242;28;20500;-79
2023/08/28 02:37:19;;;;;;;0.00;0.00;;;16.20;99.90;;;;;;5096614;28;20063;-79
2023/08/28 02:39:45;;;;;;;0.70;0.32;;;16.10;99.90;;;;;;5115108;28;20372;-80
2023/08/28 02:42:10;;;;;;;0.08;0.08;;;15.80;99.90;;;;;;5114691;28;20479;-79
2023/08/28 02:44:36;;;;;;;0.70;0.43;;;15.90;99.90;;;;;;5114794;28;20019;-78
2023/08/28 02:47:02;;;;;;;0.68;0.68;;;15.70;99.90;;;;;;5096372;28;20035;-79
2023/08/28 02:49:28;;;;;;;6.13;1.27;;;15.70;99.90;;;;;;5114690;28;20533;-79
2023/08/28 02:51:54;;;;;;;0.03;0.03;;;15.50;99.90;;;;;;5120629;27;20020;-79
2023/08/28 02:54:20;;;;;;;0.00;0.00;;;15.60;99.90;;;;;;5110527;28;20118;-80
2023/08/28 02:56:45;;;;;;;0.00;0.00;;;15.70;99.90;;;;;;5096634;28;20028;-80
2023/08/28 02:59:11;;;;;;;0.00;0.00;;;16.00;99.90;;;;;;5100210;27;20019;-80
2023/08/28 03:01:37;;;;;;;0.00;0.00;;;16.30;99.90;;;;;;5117463;27;20028;-80
2023/08/28 03:04:06;;;;;;;0.00;0.00;;;16.30;99.90;;;;;;5097121;28;20110;-79
2023/08/28 03:06:36;;;;;;;0.00;0.00;;;16.30;99.90;;;;;;5096478;27;20024;-79
2023/08/28 03:09:04;;;;;;;0.00;0.00;;;16.40;99.90;;;;;;5115835;27;20353;-79
2023/08/28 03:11:30;;;;;;;0.08;0.08;;;16.50;99.90;;;;;;5128787;27;20019;-80
2023/08/28 03:13:56;;;;;;;0.00;0.00;;;16.50;99.90;;;;;;5111843;27;20019;-80
2023/08/28 03:16:22;;;;;;;0.00;0.00;;;16.40;99.90;;;;;;5114514;27;20034;-80
2023/08/28 03:18:49;;;;;;;0.00;0.00;;;16.30;99.90;;;;;;5133065;27;20289;-80
2023/08/28 03:21:15;;;;;;;0.10;0.10;;;16.20;99.90;;;;;;5112266;27;20367;-80
2023/08/28 03:23:40;;;;;;;0.10;0.10;;;16.10;99.90;;;;;;5109908;27;20038;-80
2023/08/28 03:26:06;;;;;;;0.40;0.40;;;16.00;99.90;;;;;;5111227;27;20034;-80
2023/08/28 03:28:32;;;;;;;0.00;0.00;;;16.00;99.90;;;;;;5130500;27;20022;-79
2023/08/28 03:30:59;;;;;;;0.00;0.00;;;16.10;99.90;;;;;;5126871;27;20348;-80
2023/08/28 03:33:26;;;;;;;0.30;0.30;;;16.00;99.90;;;;;;5101366;28;20028;-80
2023/08/28 03:35:52;;;;;;;0.20;0.20;;;15.70;99.90;;;;;;5093505;28;20098;-84
2023/08/28 03:38:18;;;;;;;6.22;1.02;;;15.50;99.90;;;;;;5093100;28;20451;-80
2023/08/28 03:40:45;;;;;;;0.00;0.00;;;15.50;99.90;;;;;;5093279;28;20391;-79
2023/08/28 03:43:12;;;;;;;1.13;0.85;;;15.50;99.90;;;;;;5093218;28;20533;-80
2023/08/28 03:45:38;;;;;;;0.00;0.00;;;15.90;99.90;;;;;;5090717;28;20490;-79
2023/08/28 03:48:04;;;;;;;0.90;0.80;;;16.10;99.90;;;;;;5113521;28;20039;-79
2023/08/28 03:50:30;;;;;;;0.03;0.03;;;15.90;99.90;;;;;;5093190;28;20020;-79
2023/08/28 03:53:01;;;;;;;1.00;1.00;;;15.70;99.90;;;;;;5113140;28;20077;-79
2023/08/28 03:55:29;;;;;;;0.20;0.20;;;15.50;99.90;;;;;;5093192;28;20036;-79
2023/08/28 03:57:57;;;;;;;0.00;0.00;;;15.70;99.90;;;;;;5107883;28;20038;-80
2023/08/28 04:00:24;;;;;;;0.10;0.10;;;15.90;99.90;;;;;;5093067;28;20433;-79
2023/08/28 04:02:50;;;;;;;0.00;0.00;;;16.10;99.90;;;;;;5094725;28;20086;-80
2023/08/28 04:05:16;;;;;;;1.27;1.17;;;16.10;99.90;;;;;;5095086;28;20011;-78
2023/08/28 04:07:43;;;;;;;0.38;0.38;;;16.00;99.90;;;;;;5113096;28;20038;-81
2023/08/28 04:10:12;;;;;;;0.15;0.15;;;15.80;99.90;;;;;;5113224;28;20080;-83
2023/08/28 04:12:39;;;;;;;0.57;0.57;;;15.90;99.90;;;;;;5094752;28;20023;-79
2023/08/28 04:15:08;;;;;;;1.10;0.95;;;15.70;99.90;;;;;;5094929;28;20030;-80
2023/08/28 04:17:34;;;;;;;0.55;0.55;;;15.80;99.90;;;;;;5078125;28;20023;-83
2023/08/28 04:20:12;;;;;;;0.47;0.47;;;16.00;99.90;;;;;;5094801;28;20020;-82
2023/08/28 04:22:43;;;;;;;0.00;0.00;;;16.10;99.90;;;;;;5094116;28;20066;-83
2023/08/28 04:25:13;;;;;;;0.00;0.00;;;16.00;99.90;;;;;;5113023;28;20118;-83
2023/08/28 04:27:40;;;;;;;2.10;1.85;;;16.10;99.90;;;;;;5094842;28;20023;-80
2023/08/28 04:30:08;;;;;;;18.45;2.85;;;15.80;99.90;;;;;;5094779;28;20015;-79
2023/08/28 04:32:35;;;;;;;0.10;0.10;;;15.80;99.90;;;;;;5099861;28;20672;-78
2023/08/28 04:35:02;;;;;;;1.30;1.13;;;16.00;99.90;;;;;;5101849;28;20087;-79
2023/08/28 04:37:28;;;;;;;0.25;0.25;;;15.90;99.90;;;;;;5114684;28;20506;-80
2023/08/28 04:39:54;;;;;;;0.60;0.60;;;15.90;99.90;;;;;;5129015;28;20593;-79
2023/08/28 04:42:20;;;;;;;0.00;0.00;;;15.90;99.90;;;;;;5108527;28;20110;-79
2023/08/28 04:44:46;;;;;;;0.47;0.47;;;15.80;99.90;;;;;;5112834;28;20023;-81
2023/08/28 04:47:14;;;;;;;1.48;0.50;;;15.90;99.90;;;;;;5131903;28;20023;-79
2023/08/28 04:49:41;;;;;;;0.00;0.00;;;16.10;99.90;;;;;;5113530;28;20408;-80
2023/08/28 04:52:07;;;;;;;3.60;1.30;;;15.90;99.90;;;;;;5107101;28;20023;-79
2023/08/28 04:54:33;;;;;;;0.10;0.10;;;15.90;99.90;;;;;;5104033;28;20028;-79
2023/08/28 04:56:59;;;;;;;0.00;0.00;;;16.00;99.90;;;;;;5110577;28;20080;-79
2023/08/28 04:59:25;;;;;;;0.63;0.63;;;16.10;99.90;;;;;;5109373;28;20050;-79
2023/08/28 05:01:51;;;;;;;0.00;0.00;;;15.80;99.90;;;;;;5099473;28;20055;-80
2023/08/28 05:04:17;;;;;;;0.00;0.00;;;15.90;99.90;;;;;;5099117;28;20055;-79
2023/08/28 05:06:44;;;;;;;0.00;0.00;;;16.10;99.90;;;;;;5102474;28;20534;-80
2023/08/28 05:09:12;;;;;;;0.30;0.30;;;16.40;99.90;;;;;;5101904;28;20111;-79
2023/08/28 05:11:38;;;;;;;0.00;0.00;;;16.50;99.90;;;;;;5119107;28;20042;-80
2023/08/28 05:14:04;;;;;;;0.10;0.10;;;16.70;99.90;;;;;;5098975;28;20031;-78
2023/08/28 05:16:30;;;;;;;0.00;0.00;;;16.90;99.90;;;;;;5105643;28;20428;-79
2023/08/28 05:18:55;;;;;;;1.00;0.73;;;16.80;99.90;;;;;;5101409;28;20027;-79
2023/08/28 05:21:21;;;;;;;0.00;0.00;;;16.70;99.90;;;;;;5105423;28;20016;-79
2023/08/28 05:23:47;;;;;;;0.05;0.05;;;16.70;99.90;;;;;;5108809;28;20388;-79
2023/08/28 05:26:13;;;;;;;0.10;0.10;;;16.40;99.90;;;;;;5095779;28;20361;-79
2023/08/28 05:28:40;;;;;;;0.28;0.28;;;16.20;99.90;;;;;;5099713;28;20023;-78
2023/08/28 05:31:06;;;;;;;0.00;0.00;;;16.20;99.90;;;;;;5098175;28;20474;-79
2023/08/28 05:33:37;;;;;;;1.48;0.65;;;16.20;99.90;;;;;;5094728;28;20506;-79
2023/08/28 05:36:03;;;;;;;0.00;0.00;;;16.40;99.90;;;;;;5100121;28;20016;-79
2023/08/28 05:38:30;;;;;;;0.00;0.00;;;16.80;99.90;;;;;;5079573;28;20031;-78
2023/08/28 05:40:56;;;;;;;0.00;0.00;;;16.60;99.90;;;;;;5095525;28;20024;-79
2023/08/28 05:43:22;;;;;;;0.00;0.00;;;16.40;99.90;;;;;;5096118;28;20034;-79
2023/08/28 05:45:49;;;;;;;0.00;0.00;;;16.40;99.90;;;;;;5080431;28;20024;-78
2023/08/28 05:48:15;;;;;;;5.15;2.17;;;16.50;99.90;;;;;;5085570;27;20089;-79
2023/08/28 05:50:45;;;;;;;0.00;0.00;;;16.50;99.90;;;;;;5107222;27;20448;-78
2023/08/28 05:53:11;;;;;;;0.00;0.00;;;16.20;99.90;;;;;;5107233;27;20016;-82
2023/08/28 05:55:37;;;;;;;0.80;0.52;;;16.20;99.90;;;;;;5092446;27;20040;-79
2023/08/28 05:58:03;;;;;;;0.00;0.00;;;16.20;99.90;;;;;;5097232;28;20046;-79
2023/08/28 06:00:29;;;;;;;0.00;0.00;;;16.40;99.90;;;;;;5095165;27;20104;-79
2023/08/28 06:02:54;;;;;;;0.10;0.10;;;16.30;99.90;;;;;;5100490;27;20103;-79
2023/08/28 06:05:21;;;;;;;0.08;0.08;;;16.30;99.90;;;;;;5109908;27;20034;-79
2023/08/28 06:07:47;;;;;;;0.00;0.00;;;16.20;99.90;;;;;;5108115;27;20379;-79
2023/08/28 06:10:17;;;;;;;0.00;0.00;;;16.40;99.90;;;;;;5103295;27;20364;-79
2023/08/28 06:12:45;;;;;;;0.20;0.20;;;16.50;99.90;;;;;;5122724;27;20495;-80
2023/08/28 06:15:13;;;;;;;0.00;0.00;;;16.50;99.90;;;;;;5100318;27;20107;-79
2023/08/28 06:17:39;;;;;;;0.00;0.00;;;16.40;99.90;;;;;;5106515;28;20535;-79
2023/08/28 06:20:09;;;;;;;0.35;0.35;;;16.30;99.90;;;;;;5090599;27;20050;-80
2023/08/28 06:22:36;;;;;;;0.00;0.00;;;16.20;99.90;;;;;;5102788;27;20034;-79
2023/08/28 06:25:02;;;;;;;0.00;0.00;;;16.40;99.90;;;;;;5107122;27;20024;-79
2023/08/28 06:27:30;;;;;;;0.10;0.10;;;16.30;99.90;;;;;;5096509;27;20494;-79
2023/08/28 06:29:56;;;;;;;0.00;0.00;;;16.60;99.90;;;;;;5097359;28;20471;-80
2023/08/28 06:32:22;;;;;;;0.00;0.00;;;16.60;99.90;;;;;;5121579;27;20038;-78
2023/08/28 06:34:48;;;;;;;0.13;0.13;;;16.70;99.90;;;;;;5119394;27;20099;-80
2023/08/28 06:37:14;;;;;;;0.22;0.22;;;16.70;99.90;;;;;;5109174;27;20043;-78
2023/08/28 06:39:39;;;;;;;0.20;0.20;;;16.10;99.90;;;;;;5112937;27;20024;-79
2023/08/28 06:42:05;;;;;;;0.17;0.17;;;16.10;99.90;;;;;;5100437;28;20032;-79
2023/08/28 06:44:34;;;;;;;0.00;0.00;;;16.10;99.90;;;;;;5104947;27;20708;-80
2023/08/28 06:47:00;;;;;;;0.75;0.63;;;16.30;99.90;;;;;;5109948;27;20038;-79
2023/08/28 06:49:26;;;;;;;0.00;0.00;;;15.90;99.90;;;;;;5128690;27;20459;-79
2023/08/28 06:51:51;;;;;;;0.28;0.28;;;16.10;99.90;;;;;;5111706;27;20035;-79
2023/08/28 06:54:17;;;;;;;0.00;0.00;;;16.40;99.90;;;;;;5101244;28;20040;-79
2023/08/28 06:56:43;;;;;;;0.15;0.15;;;16.60;99.90;;;;;;5095159;28;20046;-79
2023/08/28 06:59:09;;;;;;;0.03;0.03;;;16.70;99.90;;;;;;5105717;27;20027;-79
2023/08/28 07:01:35;;;;;;;0.60;0.28;;;16.80;99.90;;;;;;5114155;27;20144;-79
2023/08/28 07:04:01;;;;;;;0.10;0.10;;;16.60;99.90;;;;;;5122864;27;20023;-79
2023/08/28 07:06:26;;;;;;;0.40;0.32;;;16.80;99.90;;;;;;5110460;27;20032;-78
2023/08/28 07:08:52;;;;;;;2.15;1.25;;;17.10;99.90;;;;;;5089519;27;20038;-79
2023/08/28 07:11:18;;;;;;;0.10;0.10;;;17.00;99.90;;;;;;5104725;27;20161;-79
2023/08/28 07:13:44;;;;;;;0.20;0.20;;;16.60;99.90;;;;;;5079561;28;20110;-80
2023/08/28 07:16:09;;;;;;;5.38;1.73;;;16.40;99.90;;;;;;5124607;27;20019;-79
2023/08/28 07:18:35;;;;;;;0.10;0.10;;;16.70;99.90;;;;;;5112564;27;20096;-79
2023/08/28 07:21:01;;;;;;;1.38;0.98;;;17.20;99.90;;;;;;5123671;27;20081;-79
2023/08/28 07:23:27;;;;;;;0.55;0.55;;;17.30;99.90;;;;;;5086696;27;20395;-79
2023/08/28 07:25:53;;;;;;;0.00;0.00;;;17.30;99.90;;;;;;5107963;27;20024;-77
2023/08/28 07:28:20;;;;;;;2.03;1.15;;;17.50;99.90;;;;;;5084404;28;20032;-78
2023/08/28 07:30:46;;;;;;;0.00;0.00;;;17.10;99.90;;;;;;5100141;27;20104;-78
2023/08/28 07:33:12;;;;;;;0.10;0.10;;;16.90;99.90;;;;;;5110772;27;20051;-79
2023/08/28 07:35:41;;;;;;;0.00;0.00;;;17.40;99.90;;;;;;5097813;27;20477;-78
2023/08/28 07:38:07;;;;;;;0.00;0.00;;;17.90;99.90;;;;;;5089397;28;20046;-78
2023/08/28 07:40:34;;;;;;;0.00;0.00;;;18.30;99.90;;;;;;5113899;27;20015;-78
2023/08/28 07:43:01;;;;;;;0.52;0.52;;;18.60;99.90;;;;;;5111860;27;20019;-78
2023/08/28 07:45:26;;;;;;;0.00;0.00;;;18.40;99.90;;;;;;5113112;27;20016;-77
2023/08/28 07:47:52;;;;;;;0.20;0.20;;;17.90;99.90;;;;;;5115282;27;20031;-78
2023/08/28 07:50:18;;;;;;;0.00;0.00;;;17.60;99.90;;;;;;5113207;27;20106;-78
2023/08/28 07:52:44;;;;;;;1.05;0.65;;;18.00;99.90;;;;;;5097667;27;20069;-78
2023/08/28 07:55:10;;;;;;;0.00;0.00;;;18.50;99.90;;;;;;5095038;28;20439;-79
2023/08/28 07:57:36;;;;;;;0.47;0.47;;;18.50;99.90;;;;;;5110771;28;20066;-78
2023/08/28 08:00:06;;;;;;;2.47;0.73;;;18.40;99.90;;;;;;5114819;27;20020;-78
2023/08/28 08:02:38;;;;;;;0.50;0.50;;;17.80;99.90;;;;;;5111904;27;20031;-79
2023/08/28 08:05:05;;;;;;;0.20;0.10;;;17.80;99.90;;;;;;5117492;27;20015;-78
2023/08/28 08:07:32;;;;;;;0.52;0.52;;;18.10;99.90;;;;;;5128467;27;20031;-78
2023/08/28 08:09:58;;;;;;;0.30;0.30;;;18.20;99.90;;;;;;5098689;28;20101;-79
2023/08/28 08:12:26;;;;;;;0.00;0.00;;;18.20;99.90;;;;;;5112863;27;20031;-78
2023/08/28 08:14:52;;;;;;;4.15;2.83;;;18.30;99.90;;;;;;5094183;28;20042;-81
2023/08/28 08:17:18;;;;;;;0.65;0.47;;;18.50;99.90;;;;;;5111970;28;20035;-81
2023/08/28 08:19:44;;;;;;;0.93;0.90;;;18.80;99.90;;;;;;5115061;28;20455;-79
2023/08/28 08:22:11;;;;;;;2.30;1.00;;;18.40;99.90;;;;;;5106190;28;20032;-79
2023/08/28 08:24:37;;;;;;;9.57;0.20;;;19.00;99.90;;;;;;5122713;27;20038;-80
2023/08/28 08:27:04;;;;;;;0.35;0.28;;;19.00;99.90;;;;;;5113892;28;20015;-80
2023/08/28 08:29:29;;;;;;;1.45;0.80;;;19.20;99.90;;;;;;5113633;27;20046;-79
2023/08/28 08:31:56;;;;;;;0.40;0.40;;;19.40;99.90;;;;;;5110801;28;20029;-79
2023/08/28 08:34:22;;;;;;;0.10;0.10;;;19.00;99.90;;;;;;5112084;28;20023;-79
2023/08/28 08:36:47;;;;;;;0.65;0.10;;;18.60;99.90;;;;;;5093880;28;20031;-79
2023/08/28 08:39:13;;;;;;;7.43;0.90;;;18.60;99.90;;;;;;5092143;28;20044;-79
2023/08/28 08:41:41;;;;;;;0.32;0.32;;;18.30;99.90;;;;;;5117576;28;20039;-80
2023/08/28 08:44:07;;;;;;;0.10;0.10;;;18.10;99.90;;;;;;5095643;28;20042;-80
2023/08/28 08:46:34;;;;;;;0.00;0.00;;;18.10;99.90;;;;;;5111952;28;20106;-80
2023/08/28 08:49:03;;;;;;;0.05;0.03;;;18.00;99.90;;;;;;5115308;28;20137;-80
2023/08/28 08:51:30;;;;;;;0.00;0.00;;;18.40;99.90;;;;;;5098927;28;20031;-81
2023/08/28 08:54:04;;;;;;;0.70;0.17;;;18.70;99.90;;;;;;5099004;28;20115;-80
2023/08/28 08:56:34;;;;;;;0.10;0.10;;;19.20;99.90;;;;;;5111375;28;20024;-80
2023/08/28 08:59:01;;;;;;;1.08;0.55;;;19.40;99.90;;;;;;5093447;28;20046;-80
2023/08/28 09:01:29;;;;;;;0.10;0.10;;;19.20;99.90;;;;;;5116180;28;20030;-80
2023/08/28 09:03:57;;;;;;;0.35;0.10;;;19.60;99.90;;;;;;5120750;28;20028;-80
2023/08/28 09:06:25;;;;;;;4.38;0.35;;;19.60;99.90;;;;;;5123722;28;20034;-80
2023/08/28 09:08:51;;;;;;;0.10;0.10;;;19.40;99.90;;;;;;5123239;28;20050;-80
2023/08/28 09:11:17;;;;;;;0.00;0.00;;;19.50;99.90;;;;;;5098739;28;20058;-81
2023/08/28 09:13:43;;;;;;;0.00;0.00;;;20.10;99.90;;;;;;5095658;28;20023;-81
2023/08/28 09:16:09;;;;;;;0.30;0.30;;;20.20;99.90;;;;;;5111648;28;20024;-79
2023/08/28 09:18:35;;;;;;;0.32;0.30;;;20.10;99.90;;;;;;5094437;28;20114;-80
2023/08/28 09:21:10;;;;;;;0.00;0.00;;;20.20;99.90;;;;;;5115276;28;20432;-80
2023/08/28 09:23:45;;;;;;;0.10;0.10;;;20.00;99.90;;;;;;5114301;28;20027;-80
2023/08/28 09:26:16;;;;;;;0.00;0.00;;;20.30;99.90;;;;;;5087160;28;20028;-79
2023/08/28 09:28:42;;;;;;;0.03;0.03;;;20.80;99.90;;;;;;5095028;28;20016;-80
2023/08/28 09:31:08;;;;;;;0.20;0.10;;;21.40;99.90;;;;;;5115753;28;20502;-81
2023/08/28 09:33:45;;;;;;;0.00;0.00;;;21.90;99.90;;;;;;5115271;28;20812;-79
2023/08/28 09:36:15;;;;;;;0.00;0.00;;;21.30;99.90;;;;;;5092500;28;20062;-80
2023/08/28 09:38:42;;;;;;;0.00;0.00;;;21.30;99.90;;;;;;5115875;28;20031;-80
2023/08/28 09:41:09;;;;;;;0.00;0.00;;;20.70;99.90;;;;;;5085844;28;20324;-80
2023/08/28 09:43:36;;;;;;;0.05;0.05;;;21.20;99.90;;;;;;5089195;28;20032;-79
2023/08/28 09:46:04;;;;;;;0.00;0.00;;;21.60;99.90;;;;;;5115814;28;20076;-79
2023/08/28 09:48:34;;;;;;;0.28;0.28;;;21.20;99.90;;;;;;5083280;28;20538;-80
2023/08/28 09:51:07;;;;;;;0.00;0.00;;;20.90;99.90;;;;;;5059970;28;20032;-80
2023/08/28 09:53:33;;;;;;;5.55;1.27;;;21.60;99.90;;;;;;5077688;28;20470;-80
2023/08/28 09:55:59;;;;;;;0.10;0.10;;;20.90;99.90;;;;;;5112997;28;20027;-80
2023/08/28 09:58:27;;;;;;;0.00;0.00;;;20.80;99.90;;;;;;5085568;28;20036;-80
2023/08/28 10:00:55;;;;;;;4.00;1.35;;;20.60;99.90;;;;;;5093243;28;20103;-80
2023/08/28 10:03:23;;;;;;;0.45;0.08;;;20.30;99.90;;;;;;5115584;28;20654;-81
2023/08/28 10:05:51;;;;;;;0.10;0.10;;;20.70;99.90;;;;;;5097150;28;20035;-79
2023/08/28 10:08:18;;;;;;;0.03;0.03;;;20.60;99.90;;;;;;5097325;28;20031;-79
2023/08/28 10:10:46;;;;;;;0.00;0.00;;;20.30;99.90;;;;;;5096362;28;20028;-79
2023/08/28 10:13:16;;;;;;;0.25;0.22;;;20.50;99.90;;;;;;5094341;28;20026;-79
2023/08/28 10:16:05;;;;;;;0.00;0.00;;;20.80;99.90;;;;;;5078148;28;20035;-79
2023/08/28 10:18:51;;;;;;;0.28;0.08;;;21.40;99.90;;;;;;5112928;28;20592;-80
2023/08/28 10:21:17;;;;;;;0.00;0.00;;;21.80;99.90;;;;;;5113172;28;20032;-80
2023/08/28 10:23:44;;;;;;;0.00;0.00;;;21.90;99.90;;;;;;5112471;27;20035;-80
2023/08/28 10:26:12;;;;;;;0.00;0.00;;;21.90;99.90;;;;;;5120343;27;20364;-79
2023/08/28 10:28:39;;;;;;;4.47;0.32;;;21.50;99.90;;;;;;5087429;28;20024;-80
2023/08/28 10:31:07;;;;;;;0.00;0.00;;;21.80;99.90;;;;;;5096127;28;20055;-80
2023/08/28 10:33:34;;;;;;;0.22;0.10;;;21.80;99.90;;;;;;5096805;28;20376;-80
2023/08/28 10:36:01;;;;;;;0.10;0.10;;;22.00;99.90;;;;;;5088880;27;20497;-80
2023/08/28 10:38:27;;;;;;;2.83;1.00;;;21.80;99.90;;;;;;5117909;27;20037;-80
2023/08/28 10:40:58;;;;;;;0.10;0.10;;;21.10;99.90;;;;;;5096542;28;20463;-80
2023/08/28 10:43:26;;;;;;;5.32;0.30;;;20.80;99.90;;;;;;5079389;28;20024;-80
2023/08/28 10:45:57;;;;;;;0.10;0.10;;;20.50;99.90;;;;;;5104047;27;20084;-82
2023/08/28 10:48:23;;;;;;;0.35;0.25;;;20.20;99.90;;;;;;5124200;27;20023;-81
2023/08/28 10:50:55;;;;;;;0.10;0.10;;;19.90;99.90;;;;;;5117414;27;20115;-79
2023/08/28 10:53:22;;;;;;;0.20;0.20;;;19.90;99.90;;;;;;5113757;28;20063;-80
2023/08/28 10:55:55;;;;;;;0.98;0.43;;;19.80;99.90;;;;;;5091720;27;20549;-80
2023/08/28 10:58:21;;;;;;;0.20;0.20;;;19.70;99.90;;;;;;5127003;27;20051;-80
2023/08/28 11:01:15;;;;;;;0.00;0.00;;;19.80;99.90;;;;;;5081892;28;20026;-80
2023/08/28 11:03:57;;;;;;;0.20;0.15;;;20.10;99.90;;;;;;5115736;27;20036;-80
2023/08/28 11:06:43;;;;;;;0.00;0.00;;;20.00;99.90;;;;;;5100318;27;20110;-81
2023/08/28 11:09:28;;;;;;;1.80;0.55;;;20.20;99.90;;;;;;5114721;27;20034;-80
2023/08/28 11:12:02;;;;;;;0.10;0.10;;;19.90;99.90;;;;;;5120221;27;20020;-80
2023/08/28 11:14:33;;;;;;;0.35;0.13;;;20.00;99.90;;;;;;5114634;27;20533;-80
2023/08/28 11:17:12;;;;;;;0.10;0.10;;;19.90;99.90;;;;;;5099948;28;20027;-79
2023/08/28 11:19:53;;;;;;;0.08;0.08;;;19.70;99.90;;;;;;5096082;28;20020;-80
2023/08/28 11:22:28;;;;;;;0.00;0.00;;;19.80;99.90;;;;;;5105447;27;20016;-79
2023/08/28 11:24:54;;;;;;;0.43;0.43;;;20.10;99.90;;;;;;5116101;27;20062;-80
2023/08/28 11:27:34;;;;;;;0.13;0.13;;;20.30;99.90;;;;;;5088204;28;20480;-79
2023/08/28 11:30:06;;;;;;;0.00;0.00;;;20.20;99.90;;;;;;5120354;27;20042;-80
2023/08/28 11:32:34;;;;;;;0.00;0.00;;;20.30;99.90;;;;;;5087879;28;20027;-80
2023/08/28 11:35:04;;;;;;;0.00;0.00;;;20.40;99.90;;;;;;5117918;27;20415;-80
2023/08/28 11:37:35;;;;;;;0.00;0.00;;;20.50;99.90;;;;;;5115094;27;20063;-80
2023/08/28 11:40:06;;;;;;;0.00;0.00;;;21.00;99.90;;;;;;5123091;27;20019;-80
2023/08/28 11:42:36;;;;;;;0.00;0.00;;;21.80;99.90;;;;;;5115636;27;20042;-80
2023/08/28 11:45:06;;;;;;;0.10;0.10;;;22.20;99.90;;;;;;5088857;28;20020;-80
2023/08/28 11:47:33;;;;;;;0.15;0.05;;;22.70;99.90;;;;;;5097248;28;20106;-81
2023/08/28 11:50:00;;;;;;;0.00;0.00;;;23.10;99.90;;;;;;5117012;27;20345;-79
2023/08/28 11:52:26;;;;;;;3.58;0.25;;;22.40;99.90;;;;;;5115850;27;20119;-79
2023/08/28 11:54:58;;;;;;;0.10;0.10;;;22.80;99.90;;;;;;5089228;28;20049;-80
2023/08/28 11:57:26;;;;;;;0.15;0.15;;;23.40;99.90;;;;;;5095161;28;20035;-80
2023/08/28 11:59:52;;;;;;;0.17;0.17;;;23.10;99.90;;;;;;5090910;27;20028;-80
2023/08/28 12:02:19;;;;;;;0.00;0.00;;;23.70;99.90;;;;;;5118075;27;20092;-80
2023/08/28 12:04:50;;;;;;;0.50;0.22;;;23.90;99.90;;;;;;5123279;27;20027;-80
2023/08/28 12:07:17;;;;;;;4.00;0.40;;;23.30;99.90;;;;;;5093592;28;20030;-80
2023/08/28 12:09:44;;;;;;;0.00;0.00;;;23.20;99.90;;;;;;5078289;28;20033;-80
2023/08/28 12:12:10;;;;;;;0.03;0.03;;;23.50;99.90;;;;;;5113713;28;20042;-80
2023/08/28 12:14:36;;;;;;;0.90;0.20;;;23.80;99.90;;;;;;5112184;28;20472;-80
2023/08/28 12:17:02;;;;;;;0.00;0.00;;;24.80;99.90;;;;;;5112602;28;20024;-80
2023/08/28 12:19:28;;;;;;;0.00;0.00;;;23.80;99.90;;;;;;5113363;28;20024;-80
2023/08/28 12:22:05;;;;;;;0.03;0.03;;;23.10;99.90;;;;;;5094791;28;20023;-80
2023/08/28 12:24:31;;;;;;;0.30;0.30;;;23.60;99.90;;;;;;5094790;28;20114;-80
2023/08/28 12:26:57;;;;;;;0.20;0.20;;;24.00;99.90;;;;;;5113187;28;20067;-80
2023/08/28 12:29:26;;;;;;;0.20;0.20;;;24.70;99.90;;;;;;5095075;28;20055;-80
2023/08/28 12:31:52;;;;;;;0.10;0.10;;;25.10;99.90;;;;;;5113176;28;20032;-80
2023/08/28 12:34:18;;;;;;;0.00;0.00;;;24.60;99.90;;;;;;5112938;28;20451;-79
2023/08/28 12:36:46;;;;;;;0.00;0.00;;;24.10;99.90;;;;;;5094770;28;20077;-80
2023/08/28 12:39:16;;;;;;;0.20;0.20;;;24.10;99.90;;;;;;5113008;28;20031;-80
2023/08/28 12:41:53;;;;;;;0.15;0.15;;;24.40;99.40;;;;;;5113423;28;20028;-81
2023/08/28 12:44:19;;;;;;;0.52;0.17;;;24.70;98.40;;;;;;5113040;28;20039;-80
2023/08/28 12:46:46;;;;;;;0.10;0.10;;;23.90;99.90;;;;;;5094859;28;20068;-80
2023/08/28 12:49:12;;;;;;;1.30;0.50;;;22.60;99.90;;;;;;5094219;28;20058;-80
2023/08/28 12:51:39;;;;;;;0.52;0.45;;;22.80;99.90;;;;;;5095032;28;20039;-80